Time;durP1;ratioP1;P1;durP2;ratioP2;P2;SDS_P1;SDS_P2;PMS_P1;PMS_P2;Temp;Humidity;BMP_temperature;BMP_pressure;BME280_temperature;BME280_humidity;BME280_pressure;Samples;Min_cycle;Max_cycle;Signal;HPM_P1;HPM_P2
2021/05/23 00:02:19;;;;;;;2.00;1.00;;;12.90;99.90;;;;;;5092640;28;20532;-65
2021/05/23 00:04:46;;;;;;;2.93;1.10;;;12.90;99.40;;;;;;5084806;28;20503;-65
2021/05/23 00:07:13;;;;;;;2.20;1.30;;;12.90;99.80;;;;;;5078227;28;20442;-65
2021/05/23 00:09:41;;;;;;;2.27;1.10;;;12.90;99.90;;;;;;5091252;28;20484;-65
2021/05/23 00:12:10;;;;;;;3.40;1.10;;;12.90;99.90;;;;;;5092965;28;20812;-66
2021/05/23 00:14:36;;;;;;;1.70;0.90;;;12.80;99.90;;;;;;5092871;28;20446;-65
2021/05/23 00:17:04;;;;;;;2.23;0.80;;;12.80;99.90;;;;;;5092804;28;20486;-65
2021/05/23 00:19:30;;;;;;;2.00;0.77;;;12.90;99.90;;;;;;5092496;28;20595;-65
2021/05/23 00:21:57;;;;;;;4.77;0.90;;;12.90;99.90;;;;;;5092509;28;20964;-65
2021/05/23 00:24:24;;;;;;;2.10;0.90;;;12.90;99.90;;;;;;5092671;28;20495;-65
2021/05/23 00:26:51;;;;;;;2.00;0.90;;;12.90;99.90;;;;;;5092998;28;20533;-65
2021/05/23 00:29:18;;;;;;;1.90;0.90;;;12.90;99.90;;;;;;5092116;28;20520;-65
2021/05/23 00:31:44;;;;;;;3.23;1.03;;;12.90;99.90;;;;;;5092676;28;20447;-65
2021/05/23 00:34:11;;;;;;;4.50;1.00;;;12.90;99.90;;;;;;5075636;28;20482;-68
2021/05/23 00:36:38;;;;;;;2.50;1.00;;;13.00;99.90;;;;;;5072558;28;20443;-65
2021/05/23 00:39:06;;;;;;;3.70;1.57;;;12.90;99.90;;;;;;5072579;28;20867;-64
2021/05/23 00:41:33;;;;;;;1.80;0.90;;;12.90;99.90;;;;;;5072450;28;20447;-65
2021/05/23 00:43:59;;;;;;;1.73;0.83;;;12.90;99.90;;;;;;5072532;28;20884;-65
2021/05/23 00:46:26;;;;;;;1.93;0.80;;;12.90;99.90;;;;;;5072389;28;20538;-65
2021/05/23 00:48:52;;;;;;;1.50;0.70;;;12.80;99.90;;;;;;5072358;28;20478;-64
2021/05/23 00:51:19;;;;;;;4.17;1.17;;;12.90;99.90;;;;;;5072045;28;20555;-64
2021/05/23 00:53:46;;;;;;;2.10;0.80;;;12.90;99.90;;;;;;5072618;28;20442;-64
2021/05/23 00:56:17;;;;;;;1.83;0.93;;;12.90;99.90;;;;;;5072501;28;20449;-65
2021/05/23 00:58:43;;;;;;;3.23;0.97;;;12.90;99.90;;;;;;5072178;28;21008;-63
2021/05/23 01:01:13;;;;;;;1.67;1.03;;;12.90;99.90;;;;;;5071841;28;20501;-64
2021/05/23 01:03:57;;;;;;;3.43;1.00;;;12.90;99.90;;;;;;5072194;28;21004;-64
2021/05/23 01:06:25;;;;;;;2.00;1.30;;;12.90;99.90;;;;;;5071763;28;20533;-63
2021/05/23 01:08:52;;;;;;;2.87;1.10;;;12.80;99.90;;;;;;5071862;28;20487;-63
2021/05/23 01:11:55;;;;;;;1.80;1.07;;;12.80;99.90;;;;;;5071579;28;20459;-63
2021/05/23 01:14:44;;;;;;;1.70;0.90;;;12.80;99.90;;;;;;5071755;28;20438;-63
2021/05/23 01:17:13;;;;;;;1.90;1.00;;;12.80;99.90;;;;;;5071663;28;20496;-63
2021/05/23 01:19:56;;;;;;;2.80;1.03;;;12.80;99.90;;;;;;5071391;28;20451;-63
2021/05/23 01:22:32;;;;;;;2.00;1.03;;;12.80;99.90;;;;;;5071416;28;20454;-62
2021/05/23 01:25:12;;;;;;;1.90;0.77;;;12.80;99.90;;;;;;5071639;28;20422;-63
2021/05/23 01:27:45;;;;;;;3.00;1.10;;;12.70;99.90;;;;;;5071413;28;20530;-63
2021/05/23 01:30:15;;;;;;;3.17;1.17;;;12.60;99.90;;;;;;5071001;28;20463;-63
2021/05/23 01:32:44;;;;;;;1.90;1.07;;;12.50;99.90;;;;;;5071409;28;20828;-64
2021/05/23 01:35:17;;;;;;;1.70;0.83;;;12.40;99.90;;;;;;5071328;28;20994;-64
2021/05/23 01:37:47;;;;;;;1.87;1.17;;;12.30;99.90;;;;;;5071507;28;20538;-64
2021/05/23 01:40:16;;;;;;;1.80;1.00;;;12.30;99.90;;;;;;5071392;28;20856;-64
2021/05/23 01:42:43;;;;;;;1.57;0.80;;;12.30;99.90;;;;;;5071550;28;20459;-64
2021/05/23 01:45:10;;;;;;;3.97;0.90;;;12.30;99.90;;;;;;5071523;28;20530;-64
2021/05/23 01:47:38;;;;;;;1.60;0.80;;;12.30;99.90;;;;;;5070996;28;20459;-63
2021/05/23 01:50:05;;;;;;;2.07;0.80;;;12.30;99.90;;;;;;5071103;28;20467;-64
2021/05/23 01:52:32;;;;;;;2.30;1.10;;;12.30;99.90;;;;;;5071044;28;20542;-64
2021/05/23 01:54:58;;;;;;;1.93;0.90;;;12.30;99.90;;;;;;5071298;28;20439;-64
2021/05/23 01:57:26;;;;;;;1.50;0.90;;;12.30;99.90;;;;;;5071043;28;20447;-64
2021/05/23 01:59:52;;;;;;;2.00;1.00;;;12.30;99.90;;;;;;5052032;28;20464;-64
2021/05/23 02:02:18;;;;;;;1.50;0.70;;;12.30;99.90;;;;;;5071054;28;20836;-64
2021/05/23 02:04:45;;;;;;;2.17;1.10;;;12.30;99.90;;;;;;5070816;28;20454;-64
2021/05/23 02:07:12;;;;;;;3.27;1.00;;;12.30;99.90;;;;;;5071093;28;20462;-64
2021/05/23 02:09:39;;;;;;;1.47;0.73;;;12.30;99.90;;;;;;5070280;28;20539;-64
2021/05/23 02:12:05;;;;;;;2.40;1.00;;;12.30;99.90;;;;;;5070843;28;20534;-64
2021/05/23 02:14:33;;;;;;;2.20;0.87;;;12.20;99.90;;;;;;5070737;28;20542;-64
2021/05/23 02:16:59;;;;;;;2.80;1.00;;;12.30;99.90;;;;;;5070951;28;20550;-64
2021/05/23 02:19:25;;;;;;;2.23;0.73;;;12.30;99.90;;;;;;5070112;28;21113;-64
2021/05/23 02:21:52;;;;;;;2.70;1.10;;;12.30;99.90;;;;;;5070800;28;20545;-64
2021/05/23 02:24:18;;;;;;;2.27;0.87;;;12.20;99.90;;;;;;5070707;28;20453;-64
2021/05/23 02:26:44;;;;;;;3.20;1.03;;;12.20;99.90;;;;;;5070509;28;20446;-64
2021/05/23 02:29:11;;;;;;;2.13;1.17;;;12.10;99.90;;;;;;5070237;28;20474;-63
2021/05/23 02:31:39;;;;;;;3.50;1.87;;;11.90;99.90;;;;;;5070590;28;20473;-63
2021/05/23 02:34:05;;;;;;;2.73;0.90;;;11.70;99.90;;;;;;5070561;28;20448;-63
2021/05/23 02:36:32;;;;;;;6.60;1.87;;;11.50;99.90;;;;;;5070180;28;20470;-64
2021/05/23 02:38:58;;;;;;;2.70;1.00;;;11.10;99.90;;;;;;5070088;28;20444;-64
2021/05/23 02:41:25;;;;;;;2.37;0.90;;;10.50;99.90;;;;;;5070111;28;20460;-64
2021/05/23 02:43:51;;;;;;;3.63;1.07;;;10.20;99.90;;;;;;5070164;28;20443;-64
2021/05/23 02:46:17;;;;;;;2.73;1.20;;;10.00;99.90;;;;;;5070350;28;20451;-64
2021/05/23 02:48:45;;;;;;;3.70;1.40;;;9.90;99.90;;;;;;5070473;28;20512;-65
2021/05/23 02:51:11;;;;;;;2.40;1.30;;;9.80;99.90;;;;;;5070070;28;20567;-65
2021/05/23 02:53:37;;;;;;;3.47;1.57;;;9.80;99.90;;;;;;5070441;28;20470;-65
2021/05/23 02:56:04;;;;;;;3.40;1.50;;;9.70;99.90;;;;;;5070344;28;20447;-65
2021/05/23 02:58:31;;;;;;;5.00;1.43;;;9.70;99.90;;;;;;5070118;28;20833;-64
2021/05/23 03:00:57;;;;;;;2.43;1.20;;;9.80;99.90;;;;;;5069865;28;21051;-65
2021/05/23 03:03:24;;;;;;;3.28;1.50;;;9.80;99.90;;;;;;5069309;28;20433;-64
2021/05/23 03:05:51;;;;;;;2.13;1.40;;;9.70;99.90;;;;;;5070012;28;20207;-65
2021/05/23 03:08:17;;;;;;;2.73;1.60;;;9.80;99.90;;;;;;5070155;28;20489;-64
2021/05/23 03:10:45;;;;;;;3.70;1.10;;;9.80;99.90;;;;;;5069601;28;20836;-65
2021/05/23 03:13:12;;;;;;;3.10;1.20;;;9.80;99.90;;;;;;5072387;28;20443;-64
2021/05/23 03:15:39;;;;;;;1.93;0.80;;;9.80;99.90;;;;;;5074436;28;20550;-64
2021/05/23 03:18:06;;;;;;;2.77;1.00;;;9.70;99.90;;;;;;5073827;28;20940;-64
2021/05/23 03:20:34;;;;;;;2.30;0.83;;;9.60;99.90;;;;;;5073513;28;20477;-64
2021/05/23 03:23:01;;;;;;;1.80;0.90;;;9.50;99.90;;;;;;5073817;28;20457;-64
2021/05/23 03:25:30;;;;;;;2.00;0.83;;;9.50;99.90;;;;;;5073801;28;20439;-64
2021/05/23 03:27:58;;;;;;;2.43;0.80;;;9.40;99.90;;;;;;5074084;28;20948;-64
2021/05/23 03:30:26;;;;;;;1.60;0.80;;;9.40;99.90;;;;;;5073506;28;20612;-64
2021/05/23 03:32:53;;;;;;;1.97;0.70;;;9.40;99.90;;;;;;5073885;28;21031;-64
2021/05/23 03:35:19;;;;;;;2.73;1.00;;;9.30;99.90;;;;;;5074069;28;20435;-64
2021/05/23 03:37:46;;;;;;;2.33;0.90;;;9.30;99.90;;;;;;5074087;28;20549;-64
2021/05/23 03:40:16;;;;;;;4.23;1.00;;;9.20;99.90;;;;;;5073378;28;20463;-64
2021/05/23 03:42:42;;;;;;;2.53;0.90;;;9.30;99.90;;;;;;5073895;28;20501;-64
2021/05/23 03:45:10;;;;;;;2.10;0.80;;;9.20;99.90;;;;;;5073353;28;21001;-64
2021/05/23 03:47:37;;;;;;;3.20;1.00;;;9.20;99.90;;;;;;5073551;28;20996;-64
2021/05/23 03:50:04;;;;;;;2.43;0.73;;;9.20;99.90;;;;;;5073067;28;20469;-64
2021/05/23 03:52:31;;;;;;;1.70;0.80;;;9.30;99.90;;;;;;5073364;28;20500;-64
2021/05/23 03:54:57;;;;;;;3.20;1.13;;;9.20;99.90;;;;;;5073332;28;20443;-65
2021/05/23 03:57:24;;;;;;;1.63;0.80;;;9.20;99.90;;;;;;5073733;28;20449;-64
2021/05/23 03:59:50;;;;;;;3.03;0.90;;;9.30;99.90;;;;;;5072805;28;20455;-64
2021/05/23 04:02:17;;;;;;;2.63;0.80;;;9.30;99.90;;;;;;5073170;28;20541;-64
2021/05/23 04:04:47;;;;;;;1.60;0.80;;;9.30;99.90;;;;;;5073009;28;20453;-64
2021/05/23 04:07:19;;;;;;;2.03;0.83;;;9.30;99.90;;;;;;5073170;28;20461;-64
2021/05/23 04:09:45;;;;;;;3.20;1.00;;;9.30;99.90;;;;;;5072701;28;20487;-64
2021/05/23 04:12:15;;;;;;;2.40;0.73;;;9.30;99.90;;;;;;5073273;28;20455;-64
2021/05/23 04:14:43;;;;;;;2.00;0.90;;;9.30;99.90;;;;;;5072755;28;21025;-64
2021/05/23 04:17:09;;;;;;;5.40;1.00;;;9.30;99.90;;;;;;5072967;28;20503;-64
2021/05/23 04:19:36;;;;;;;2.23;1.10;;;9.40;99.90;;;;;;5072371;28;20562;-63
2021/05/23 04:22:04;;;;;;;1.87;0.80;;;9.40;99.90;;;;;;5072924;28;20845;-63
2021/05/23 04:24:30;;;;;;;2.37;1.17;;;9.40;99.90;;;;;;5072550;28;20443;-64
2021/05/23 04:26:57;;;;;;;2.07;0.70;;;9.40;99.90;;;;;;5072864;28;20530;-63
2021/05/23 04:29:23;;;;;;;2.90;0.90;;;9.40;99.90;;;;;;5072622;28;20514;-64
2021/05/23 04:31:50;;;;;;;6.90;1.23;;;9.50;99.90;;;;;;5072547;28;20435;-64
2021/05/23 04:34:16;;;;;;;1.60;0.80;;;9.50;99.90;;;;;;5072864;28;21244;-64
2021/05/23 04:36:43;;;;;;;1.80;0.90;;;9.50;99.90;;;;;;5072776;28;20439;-64
2021/05/23 04:39:09;;;;;;;1.97;0.70;;;9.50;99.90;;;;;;5072384;28;20457;-64
2021/05/23 04:41:36;;;;;;;1.80;0.80;;;9.50;99.90;;;;;;5072282;28;20542;-64
2021/05/23 04:44:05;;;;;;;2.43;0.90;;;9.60;99.90;;;;;;5072538;28;20530;-64
2021/05/23 04:46:31;;;;;;;1.60;0.70;;;9.60;99.90;;;;;;5072394;28;20833;-64
2021/05/23 04:48:58;;;;;;;2.23;0.67;;;9.60;99.90;;;;;;5072142;28;20475;-63
2021/05/23 04:51:25;;;;;;;2.73;1.63;;;9.70;99.90;;;;;;5072429;28;20459;-64
2021/05/23 04:53:51;;;;;;;2.07;0.80;;;9.80;99.90;;;;;;5072181;28;20445;-64
2021/05/23 04:56:17;;;;;;;1.60;0.70;;;9.80;99.90;;;;;;5072062;28;21177;-64
2021/05/23 04:58:44;;;;;;;1.93;0.80;;;9.80;99.90;;;;;;5072111;28;20465;-64
2021/05/23 05:01:10;;;;;;;1.57;0.80;;;9.90;99.90;;;;;;5071840;28;20542;-64
2021/05/23 05:03:37;;;;;;;2.73;0.80;;;9.90;99.90;;;;;;5071840;28;20459;-64
2021/05/23 05:06:04;;;;;;;3.90;1.00;;;9.90;99.90;;;;;;5071813;28;20498;-64
2021/05/23 05:08:31;;;;;;;3.63;0.93;;;10.00;99.90;;;;;;5071732;28;20485;-64
2021/05/23 05:10:57;;;;;;;2.70;0.80;;;10.10;99.90;;;;;;5071738;28;20505;-64
2021/05/23 05:13:23;;;;;;;1.90;0.80;;;10.20;99.90;;;;;;5071614;28;20458;-64
2021/05/23 05:15:50;;;;;;;2.13;0.80;;;10.20;99.90;;;;;;5071736;28;20444;-64
2021/05/23 05:18:16;;;;;;;3.73;0.93;;;10.20;99.90;;;;;;5071524;28;20553;-64
2021/05/23 05:20:43;;;;;;;1.83;0.73;;;10.20;99.90;;;;;;5071393;28;20810;-63
2021/05/23 05:23:10;;;;;;;3.03;0.80;;;10.20;99.90;;;;;;5071585;28;20811;-64
2021/05/23 05:25:36;;;;;;;2.17;1.00;;;10.20;99.90;;;;;;5071660;28;20962;-64
2021/05/23 05:28:03;;;;;;;1.60;0.70;;;10.30;99.90;;;;;;5071568;28;20440;-64
2021/05/23 05:30:30;;;;;;;1.60;0.70;;;10.30;99.90;;;;;;5071285;28;20513;-64
2021/05/23 05:32:56;;;;;;;2.63;0.83;;;10.40;99.90;;;;;;5071871;28;20823;-64
2021/05/23 05:35:23;;;;;;;2.43;1.00;;;10.50;99.90;;;;;;5070789;28;20462;-64
2021/05/23 05:37:49;;;;;;;1.73;0.80;;;10.60;99.90;;;;;;5071629;28;20552;-64
2021/05/23 05:40:17;;;;;;;3.43;1.00;;;10.70;99.90;;;;;;5070803;28;20473;-64
2021/05/23 05:42:43;;;;;;;1.70;0.77;;;10.80;99.90;;;;;;5071366;28;20466;-64
2021/05/23 05:45:11;;;;;;;1.53;0.80;;;10.80;99.90;;;;;;5070906;28;20447;-63
2021/05/23 05:47:37;;;;;;;4.47;1.10;;;10.80;99.90;;;;;;5070731;28;20543;-64
2021/05/23 05:50:05;;;;;;;2.77;1.00;;;10.70;99.90;;;;;;5070277;28;20566;-64
2021/05/23 05:52:31;;;;;;;2.63;1.17;;;10.70;99.90;;;;;;5070697;28;21165;-64
2021/05/23 05:54:58;;;;;;;1.80;0.80;;;10.60;99.90;;;;;;5070760;28;20443;-64
2021/05/23 05:57:25;;;;;;;2.87;1.10;;;10.50;99.90;;;;;;5070553;28;20439;-64
2021/05/23 05:59:51;;;;;;;2.17;1.17;;;10.40;99.90;;;;;;5070118;28;20567;-64
2021/05/23 06:02:18;;;;;;;2.57;1.10;;;10.40;99.90;;;;;;5070624;28;20470;-64
2021/05/23 06:04:44;;;;;;;2.17;1.00;;;10.40;99.90;;;;;;5070446;28;20450;-64
2021/05/23 06:07:10;;;;;;;2.83;1.10;;;10.50;99.90;;;;;;5070309;28;20457;-64
2021/05/23 06:09:37;;;;;;;2.20;1.03;;;10.60;99.90;;;;;;5070036;28;20499;-64
2021/05/23 06:12:04;;;;;;;2.90;1.27;;;10.80;99.90;;;;;;5070309;28;20447;-64
2021/05/23 06:14:31;;;;;;;2.57;1.00;;;10.90;99.90;;;;;;5070202;28;20464;-64
2021/05/23 06:16:58;;;;;;;2.90;1.10;;;11.10;99.90;;;;;;5070208;28;20546;-64
2021/05/23 06:19:24;;;;;;;2.13;0.93;;;11.30;99.90;;;;;;5070028;28;20432;-64
2021/05/23 06:21:50;;;;;;;1.90;0.80;;;11.30;99.90;;;;;;5070075;28;20459;-64
2021/05/23 06:24:17;;;;;;;3.20;0.90;;;11.30;99.90;;;;;;5070273;28;20447;-64
2021/05/23 06:26:44;;;;;;;2.17;0.90;;;11.50;99.90;;;;;;5069996;28;20475;-64
2021/05/23 06:29:10;;;;;;;2.17;1.07;;;11.60;99.90;;;;;;5069752;28;20581;-63
2021/05/23 06:31:38;;;;;;;1.90;1.10;;;11.90;99.90;;;;;;5070089;28;20454;-64
2021/05/23 06:34:04;;;;;;;2.43;1.00;;;11.90;99.90;;;;;;5069856;28;20451;-64
2021/05/23 06:36:30;;;;;;;11.23;2.73;;;12.10;99.90;;;;;;5069996;28;20486;-64
2021/05/23 06:38:57;;;;;;;2.10;0.97;;;12.20;99.90;;;;;;5069568;28;20537;-63
2021/05/23 06:41:23;;;;;;;1.73;0.80;;;12.30;99.90;;;;;;5069737;28;20542;-64
2021/05/23 06:43:49;;;;;;;1.90;1.00;;;12.50;99.90;;;;;;5070043;28;20983;-66
2021/05/23 06:46:16;;;;;;;3.13;1.30;;;12.50;99.90;;;;;;5069993;28;20439;-64
2021/05/23 06:48:43;;;;;;;1.97;0.90;;;12.60;99.90;;;;;;5069520;28;20574;-63
2021/05/23 06:51:09;;;;;;;3.30;1.33;;;12.60;99.90;;;;;;5067587;28;20479;-64
2021/05/23 06:53:36;;;;;;;2.43;0.80;;;12.60;99.90;;;;;;5069593;28;20445;-65
2021/05/23 06:56:02;;;;;;;2.10;1.10;;;12.50;99.90;;;;;;5069969;28;20533;-65
2021/05/23 06:58:28;;;;;;;2.20;1.00;;;12.40;99.90;;;;;;5069854;28;20585;-65
2021/05/23 07:00:55;;;;;;;2.07;0.87;;;12.30;99.90;;;;;;5069291;28;20462;-65
2021/05/23 07:03:21;;;;;;;1.87;0.93;;;12.20;99.90;;;;;;5069776;28;20447;-64
2021/05/23 07:05:48;;;;;;;1.80;0.80;;;12.10;99.90;;;;;;5069457;28;20457;-65
2021/05/23 07:08:17;;;;;;;2.70;1.40;;;12.20;99.90;;;;;;5069539;28;20527;-65
2021/05/23 07:10:43;;;;;;;4.23;1.10;;;12.20;99.90;;;;;;5069039;28;20477;-65
2021/05/23 07:13:09;;;;;;;2.70;1.00;;;12.40;99.90;;;;;;5069785;28;20449;-65
2021/05/23 07:15:36;;;;;;;2.33;1.10;;;12.50;99.90;;;;;;5069885;28;20875;-65
2021/05/23 07:18:02;;;;;;;2.60;1.00;;;12.70;99.90;;;;;;5069532;28;20872;-65
2021/05/23 07:20:29;;;;;;;2.33;1.30;;;13.10;99.90;;;;;;5069233;28;20520;-65
2021/05/23 07:22:56;;;;;;;2.70;1.07;;;13.40;99.90;;;;;;5069290;28;20447;-65
2021/05/23 07:25:23;;;;;;;3.93;1.00;;;13.70;99.90;;;;;;5069778;28;20956;-65
2021/05/23 07:27:50;;;;;;;3.60;0.80;;;13.90;99.90;;;;;;5064629;28;20463;-65
2021/05/23 07:30:17;;;;;;;2.10;1.00;;;13.80;99.90;;;;;;5066833;28;20494;-65
2021/05/23 07:32:44;;;;;;;3.70;0.97;;;13.80;99.90;;;;;;5068228;28;20468;-65
2021/05/23 07:35:11;;;;;;;3.50;1.43;;;13.80;99.90;;;;;;5068735;28;20450;-64
2021/05/23 07:37:37;;;;;;;2.43;0.90;;;13.60;99.90;;;;;;5078108;28;20451;-64
2021/05/23 07:40:05;;;;;;;2.67;0.80;;;13.50;99.90;;;;;;5084432;28;20545;-64
2021/05/23 07:42:32;;;;;;;2.73;1.10;;;13.40;99.90;;;;;;5081168;28;20450;-64
2021/05/23 07:44:58;;;;;;;1.70;0.80;;;13.10;99.90;;;;;;5087150;28;20511;-65
2021/05/23 07:47:25;;;;;;;2.70;0.83;;;13.10;99.90;;;;;;5087892;28;20458;-65
2021/05/23 07:49:51;;;;;;;2.87;1.00;;;13.10;99.90;;;;;;5086843;28;20489;-65
2021/05/23 07:52:18;;;;;;;2.87;1.03;;;12.70;99.90;;;;;;5087163;28;20482;-65
2021/05/23 07:54:44;;;;;;;2.10;1.00;;;12.10;99.90;;;;;;5087004;28;20452;-66
2021/05/23 07:57:11;;;;;;;4.53;1.17;;;11.60;99.90;;;;;;5087531;28;20441;-64
2021/05/23 07:59:38;;;;;;;2.40;1.10;;;11.20;99.90;;;;;;5080874;28;20499;-65
2021/05/23 08:02:04;;;;;;;2.40;1.20;;;10.80;99.90;;;;;;5083400;28;20849;-66
2021/05/23 08:04:31;;;;;;;3.00;1.17;;;10.60;99.90;;;;;;5087991;28;20668;-65
2021/05/23 08:06:57;;;;;;;2.90;1.20;;;10.50;99.90;;;;;;5070544;28;20749;-65
2021/05/23 08:09:23;;;;;;;3.70;0.90;;;10.60;99.90;;;;;;5077722;28;20562;-66
2021/05/23 08:11:50;;;;;;;2.00;0.90;;;10.70;99.90;;;;;;5071799;28;20522;-65
2021/05/23 08:14:17;;;;;;;3.63;1.47;;;10.80;99.90;;;;;;5076454;28;20454;-66
2021/05/23 08:16:45;;;;;;;2.10;1.03;;;11.00;99.90;;;;;;5076991;28;20451;-65
2021/05/23 08:19:11;;;;;;;2.03;1.00;;;11.00;99.90;;;;;;5082518;28;20451;-64
2021/05/23 08:21:38;;;;;;;2.00;1.00;;;11.00;99.90;;;;;;5075338;28;20450;-64
2021/05/23 08:24:06;;;;;;;5.43;1.20;;;11.10;99.90;;;;;;5079217;28;20470;-64
2021/05/23 08:26:33;;;;;;;3.50;1.37;;;11.20;99.90;;;;;;5070575;28;20530;-64
2021/05/23 08:28:59;;;;;;;2.90;0.87;;;11.20;99.90;;;;;;5068343;28;20514;-64
2021/05/23 08:31:27;;;;;;;2.20;1.13;;;11.20;99.90;;;;;;5073208;28;20546;-65
2021/05/23 08:33:53;;;;;;;1.73;0.80;;;11.40;99.90;;;;;;5065701;28;20523;-64
2021/05/23 08:36:20;;;;;;;2.40;1.27;;;11.50;99.90;;;;;;5059574;28;20509;-65
2021/05/23 08:38:47;;;;;;;4.17;1.30;;;11.70;99.90;;;;;;5068359;28;20435;-64
2021/05/23 08:41:15;;;;;;;1.80;0.63;;;11.80;99.90;;;;;;5069323;28;20466;-64
2021/05/23 08:43:41;;;;;;;2.90;1.07;;;12.00;99.90;;;;;;5061177;28;20449;-67
2021/05/23 08:46:08;;;;;;;1.90;1.20;;;12.30;99.90;;;;;;5067545;28;20448;-66
2021/05/23 08:48:35;;;;;;;5.10;1.00;;;12.60;99.90;;;;;;5074819;28;20479;-63
2021/05/23 08:51:02;;;;;;;2.57;1.07;;;13.00;99.90;;;;;;5077143;28;20467;-64
2021/05/23 08:53:28;;;;;;;4.10;1.20;;;13.30;99.90;;;;;;5090571;28;20461;-63
2021/05/23 08:55:55;;;;;;;2.00;0.70;;;13.60;99.90;;;;;;5089170;28;20559;-64
2021/05/23 08:58:24;;;;;;;1.60;0.70;;;13.90;99.90;;;;;;5075228;28;20457;-64
2021/05/23 09:00:50;;;;;;;2.93;1.07;;;13.90;99.90;;;;;;5071570;28;20528;-64
2021/05/23 09:03:17;;;;;;;3.50;2.03;;;13.70;99.90;;;;;;5085409;28;20484;-65
2021/05/23 09:05:47;;;;;;;1.80;0.90;;;13.60;99.90;;;;;;5090683;28;20454;-64
2021/05/23 09:08:15;;;;;;;2.57;0.87;;;13.70;99.90;;;;;;5089014;28;20442;-64
2021/05/23 09:10:44;;;;;;;3.20;1.10;;;13.90;99.90;;;;;;5074613;28;21210;-64
2021/05/23 09:13:11;;;;;;;3.03;0.90;;;14.20;99.90;;;;;;5090549;28;20441;-67
2021/05/23 09:15:38;;;;;;;2.10;1.43;;;14.40;99.90;;;;;;5089374;28;20539;-64
2021/05/23 09:18:07;;;;;;;2.60;0.90;;;14.50;99.90;;;;;;5090304;28;20443;-64
2021/05/23 09:20:35;;;;;;;1.57;0.80;;;14.50;99.90;;;;;;5089810;28;20473;-63
2021/05/23 09:23:12;;;;;;;2.17;0.90;;;14.60;99.90;;;;;;5089580;28;21010;-64
2021/05/23 09:25:38;;;;;;;2.83;1.00;;;14.80;99.90;;;;;;5089599;28;20585;-63
2021/05/23 09:28:06;;;;;;;1.97;0.80;;;15.40;99.90;;;;;;5087565;28;21123;-63
2021/05/23 09:30:35;;;;;;;2.33;0.80;;;15.80;99.90;;;;;;5077233;28;20977;-63
2021/05/23 09:33:02;;;;;;;2.57;0.87;;;16.00;99.90;;;;;;5089880;28;20450;-64
2021/05/23 09:35:30;;;;;;;2.13;1.00;;;15.70;99.90;;;;;;5089349;28;20446;-64
2021/05/23 09:38:03;;;;;;;2.90;0.80;;;15.30;99.90;;;;;;5089089;28;20450;-63
2021/05/23 09:40:33;;;;;;;2.83;0.73;;;14.90;99.90;;;;;;5088035;28;20569;-64
2021/05/23 09:43:00;;;;;;;2.33;0.90;;;14.80;99.90;;;;;;5085327;28;20442;-64
2021/05/23 09:45:40;;;;;;;3.90;1.30;;;14.70;99.90;;;;;;5080219;28;20558;-64
2021/05/23 09:48:08;;;;;;;2.73;0.90;;;14.90;99.90;;;;;;5077509;28;20446;-64
2021/05/23 09:50:37;;;;;;;1.60;0.67;;;14.80;99.90;;;;;;5086789;28;20482;-63
2021/05/23 09:53:17;;;;;;;2.10;0.80;;;14.40;99.90;;;;;;5078357;28;20452;-62
2021/05/23 09:55:51;;;;;;;5.60;1.00;;;14.00;99.90;;;;;;5077248;28;20449;-62
2021/05/23 09:58:22;;;;;;;2.43;0.90;;;13.70;99.90;;;;;;5068316;28;20450;-63
2021/05/23 10:00:48;;;;;;;2.23;0.90;;;13.40;99.90;;;;;;5079897;28;20470;-63
2021/05/23 10:03:25;;;;;;;2.90;0.90;;;13.10;99.90;;;;;;5083633;28;20532;-64
2021/05/23 10:05:51;;;;;;;5.00;1.47;;;12.50;99.90;;;;;;5074648;28;20443;-64
2021/05/23 10:08:19;;;;;;;2.93;1.37;;;11.90;99.90;;;;;;5054766;28;20532;-66
2021/05/23 10:10:46;;;;;;;8.03;1.50;;;11.20;99.90;;;;;;5065611;28;20549;-65
2021/05/23 10:13:12;;;;;;;2.67;1.10;;;10.90;99.90;;;;;;5066067;28;20459;-65
2021/05/23 10:15:40;;;;;;;5.70;2.90;;;10.80;99.90;;;;;;5063035;28;20781;-65
2021/05/23 10:18:07;;;;;;;2.70;1.50;;;10.80;99.90;;;;;;5055321;28;20516;-66
2021/05/23 10:20:34;;;;;;;3.43;1.90;;;11.10;99.90;;;;;;5059703;28;20519;-66
2021/05/23 10:23:08;;;;;;;3.47;1.80;;;11.80;99.90;;;;;;5064800;28;20451;-66
2021/05/23 10:25:38;;;;;;;4.13;1.17;;;12.50;99.90;;;;;;5060588;28;20442;-66
2021/05/23 10:28:06;;;;;;;3.53;1.20;;;13.30;99.90;;;;;;5064153;28;20562;-65
2021/05/23 10:30:33;;;;;;;2.20;1.03;;;14.20;99.90;;;;;;5062563;28;20572;-65
2021/05/23 10:33:11;;;;;;;3.93;1.20;;;14.80;99.90;;;;;;5065351;28;20530;-66
2021/05/23 10:35:42;;;;;;;3.00;1.80;;;15.90;99.90;;;;;;5058479;28;21281;-65
2021/05/23 10:38:10;;;;;;;4.20;2.07;;;16.70;99.90;;;;;;5052634;28;20451;-66
2021/05/23 10:40:50;;;;;;;3.30;1.20;;;17.40;99.90;;;;;;5063426;28;20473;-65
2021/05/23 10:43:23;;;;;;;2.03;0.80;;;17.70;99.90;;;;;;5058559;28;20984;-65
2021/05/23 10:45:49;;;;;;;4.97;1.20;;;17.80;99.90;;;;;;5063457;28;20447;-65
2021/05/23 10:48:17;;;;;;;3.07;1.00;;;17.00;99.90;;;;;;5062081;28;21094;-65
2021/05/23 10:50:47;;;;;;;3.50;1.20;;;16.80;99.90;;;;;;5063767;28;20487;-65
2021/05/23 10:53:13;;;;;;;2.47;0.97;;;17.10;99.90;;;;;;5060118;28;20938;-65
2021/05/23 10:55:53;;;;;;;2.60;1.00;;;17.40;99.90;;;;;;5064531;28;20443;-68
2021/05/23 10:58:22;;;;;;;1.90;0.90;;;17.80;99.90;;;;;;5065094;28;20488;-65
2021/05/23 11:00:51;;;;;;;3.20;1.03;;;19.00;99.90;;;;;;5065737;28;20459;-64
2021/05/23 11:03:19;;;;;;;1.90;0.80;;;19.30;99.90;;;;;;5066943;28;20458;-65
2021/05/23 11:05:46;;;;;;;1.90;1.00;;;19.40;99.90;;;;;;5066587;28;20531;-65
2021/05/23 11:08:14;;;;;;;2.90;0.83;;;19.60;99.90;;;;;;5066453;28;20508;-66
2021/05/23 11:10:42;;;;;;;2.93;1.00;;;19.70;99.90;;;;;;5066965;28;20664;-66
2021/05/23 11:13:12;;;;;;;2.77;1.00;;;19.90;99.90;;;;;;5067236;28;20447;-65
2021/05/23 11:15:41;;;;;;;2.27;1.10;;;19.80;99.90;;;;;;5065880;28;20439;-65
2021/05/23 11:18:07;;;;;;;2.40;1.03;;;19.80;99.90;;;;;;5063640;28;20489;-65
2021/05/23 11:20:34;;;;;;;3.20;1.27;;;19.40;99.90;;;;;;5065323;28;20558;-64
2021/05/23 11:23:03;;;;;;;2.77;1.20;;;18.70;99.90;;;;;;5066100;28;20804;-66
2021/05/23 11:25:30;;;;;;;2.63;1.13;;;17.70;99.90;;;;;;5067844;28;20463;-66
2021/05/23 11:28:02;;;;;;;2.10;0.90;;;16.30;99.90;;;;;;5067873;28;20556;-65
2021/05/23 11:30:33;;;;;;;3.30;1.30;;;14.80;99.90;;;;;;5067010;28;20483;-63
2021/05/23 11:33:01;;;;;;;2.60;1.30;;;13.90;99.90;;;;;;5067896;28;20466;-65
2021/05/23 11:35:28;;;;;;;2.97;1.33;;;13.10;99.90;;;;;;5071321;28;20455;-66
2021/05/23 11:37:55;;;;;;;2.70;1.53;;;12.60;99.90;;;;;;5073002;28;20875;-66
2021/05/23 11:40:22;;;;;;;3.97;0.90;;;12.20;99.90;;;;;;5072614;28;20467;-66
2021/05/23 11:42:49;;;;;;;3.47;1.20;;;11.90;99.90;;;;;;5072633;28;20447;-66
2021/05/23 11:45:21;;;;;;;3.27;1.50;;;12.10;99.90;;;;;;5072678;28;20522;-67
2021/05/23 11:47:50;;;;;;;3.10;1.50;;;12.60;99.90;;;;;;5071770;28;20482;-69
2021/05/23 11:50:24;;;;;;;5.67;1.57;;;13.70;99.90;;;;;;5072031;28;20603;-66
2021/05/23 11:52:55;;;;;;;2.53;1.20;;;14.70;99.90;;;;;;5072616;28;20450;-66
2021/05/23 11:55:24;;;;;;;2.93;1.27;;;15.60;99.90;;;;;;5066237;28;20443;-65
2021/05/23 11:57:51;;;;;;;3.33;1.20;;;16.20;99.90;;;;;;5065728;28;20455;-65
2021/05/23 12:00:19;;;;;;;2.90;1.00;;;16.50;99.90;;;;;;5066390;28;20567;-65
2021/05/23 12:02:54;;;;;;;2.30;1.10;;;17.10;99.90;;;;;;5070206;28;20526;-65
2021/05/23 12:05:22;;;;;;;2.10;1.17;;;17.80;99.90;;;;;;5067138;28;20438;-65
2021/05/23 12:07:50;;;;;;;2.13;0.90;;;18.60;99.90;;;;;;5072123;28;20529;-64
2021/05/23 12:10:22;;;;;;;3.13;1.30;;;19.70;99.90;;;;;;5069476;28;20875;-65
2021/05/23 12:12:50;;;;;;;2.10;0.97;;;20.70;99.90;;;;;;5071453;28;20459;-65
2021/05/23 12:15:21;;;;;;;3.00;1.20;;;21.30;99.90;;;;;;5070913;28;20537;-65
2021/05/23 12:17:57;;;;;;;1.60;0.80;;;21.20;99.90;;;;;;5070863;28;20483;-65
2021/05/23 12:20:24;;;;;;;2.50;0.87;;;20.20;97.80;;;;;;5063592;28;21249;-66
2021/05/23 12:22:52;;;;;;;2.43;0.90;;;19.80;99.90;;;;;;5062881;28;20461;-65
2021/05/23 12:25:20;;;;;;;1.73;0.80;;;19.50;98.60;;;;;;5070239;28;20530;-65
2021/05/23 12:27:48;;;;;;;2.83;0.90;;;19.00;98.80;;;;;;5069770;28;20458;-65
2021/05/23 12:30:17;;;;;;;2.80;1.00;;;19.10;99.90;;;;;;5069825;28;20486;-65
2021/05/23 12:32:51;;;;;;;2.27;1.10;;;19.80;97.80;;;;;;5062860;28;20827;-65
2021/05/23 12:35:21;;;;;;;3.50;1.70;;;20.70;99.90;;;;;;5062727;28;20455;-65
2021/05/23 12:37:49;;;;;;;2.30;0.87;;;22.30;99.90;;;;;;5067368;28;20455;-64
2021/05/23 12:40:17;;;;;;;4.50;0.90;;;23.60;93.30;;;;;;5069005;28;20470;-64
2021/05/23 12:42:44;;;;;;;2.10;0.70;;;22.00;90.00;;;;;;5069716;28;20532;-63
2021/05/23 12:45:12;;;;;;;2.33;0.80;;;20.30;90.80;;;;;;5069441;28;20534;-65
2021/05/23 12:47:56;;;;;;;2.67;0.90;;;19.00;92.70;;;;;;5070105;28;20888;-64
2021/05/23 12:50:32;;;;;;;6.73;1.33;;;18.50;96.90;;;;;;5068363;28;20494;-65
2021/05/23 12:52:59;;;;;;;1.70;0.80;;;18.10;95.60;;;;;;5070106;28;20615;-65